Time;durP1;ratioP1;P1;durP2;ratioP2;P2;SDS_P1;SDS_P2;PMS_P1;PMS_P2;Temp;Humidity;BMP_temperature;BMP_pressure;BME280_temperature;BME280_humidity;BME280_pressure;Samples;Min_cycle;Max_cycle;Signal;HPM_P1;HPM_P2
2024/02/28 00:35:22;;;;;;;78.30;26.58;;;;;;;3.73;100.00;98658.78;15299812;19;19986;-82
2024/02/28 00:40:47;;;;;;;62.63;24.35;;;;;;;3.74;100.00;98656.94;15296201;19;20526;-83
2024/02/28 00:46:12;;;;;;;67.82;26.10;;;;;;;3.76;100.00;98655.03;15297534;19;20051;-82
2024/02/28 00:51:39;;;;;;;58.05;23.88;;;;;;;3.76;100.00;98655.91;15293334;19;20011;-82
2024/02/28 00:57:04;;;;;;;54.65;24.40;;;;;;;3.69;100.00;98650.16;15298629;19;20373;-83
2024/02/28 01:02:28;;;;;;;51.70;25.88;;;;;;;3.64;100.00;98652.28;15294140;19;20547;-83
2024/02/28 01:07:57;;;;;;;53.63;26.67;;;;;;;3.57;100.00;98651.06;15293428;19;20458;-83
2024/02/28 01:13:23;;;;;;;54.90;26.58;;;;;;;3.62;100.00;98659.53;15295274;19;20020;-83
2024/02/28 01:18:48;;;;;;;46.38;25.92;;;;;;;3.60;100.00;98665.94;15295284;19;20022;-82
2024/02/28 01:24:15;;;;;;;37.67;23.33;;;;;;;3.63;100.00;98650.59;15291194;19;20028;-82
2024/02/28 01:29:40;;;;;;;34.95;22.10;;;;;;;3.53;100.00;98662.88;15289511;19;20014;-83
2024/02/28 01:35:04;;;;;;;41.67;22.83;;;;;;;3.50;100.00;98647.97;15292574;19;20046;-84
2024/02/28 01:40:32;;;;;;;34.65;22.05;;;;;;;3.53;100.00;98645.06;15287712;19;20018;-83
2024/02/28 01:45:56;;;;;;;38.35;22.27;;;;;;;3.46;100.00;98645.66;15292495;19;20491;-82
2024/02/28 01:51:22;;;;;;;37.20;21.67;;;;;;;3.48;100.00;98649.03;15287399;19;20024;-83
2024/02/28 01:56:50;;;;;;;47.03;23.08;;;;;;;3.46;100.00;98645.66;15285053;19;20018;-81
2024/02/28 02:02:15;;;;;;;46.30;22.27;;;;;;;3.52;100.00;98647.84;15295399;19;20021;-84
2024/02/28 02:07:47;;;;;;;39.13;22.05;;;;;;;3.41;100.00;98645.13;15316424;19;20035;-81
2024/02/28 02:13:15;;;;;;;59.72;25.77;;;;;;;3.26;100.00;98642.59;15314893;19;20007;-82
2024/02/28 02:18:42;;;;;;;63.35;27.35;;;;;;;3.14;100.00;98643.44;15318350;19;20019;-81
2024/02/28 02:24:11;;;;;;;66.10;29.48;;;;;;;3.01;100.00;98646.97;15315215;19;20011;-82
2024/02/28 02:29:35;;;;;;;93.45;33.70;;;;;;;2.92;100.00;98652.94;15303234;19;20025;-82
2024/02/28 02:35:00;;;;;;;95.10;33.85;;;;;;;2.89;100.00;98647.84;15307955;19;20014;-83
2024/02/28 02:40:27;;;;;;;88.22;32.30;;;;;;;2.87;100.00;98655.09;15306511;19;20027;-82
2024/02/28 02:45:53;;;;;;;97.65;34.35;;;;;;;2.81;100.00;98647.53;15306190;19;20043;-83
2024/02/28 02:51:18;;;;;;;97.85;36.35;;;;;;;2.77;100.00;98646.91;15305673;19;20018;-82
2024/02/28 02:56:46;;;;;;;125.43;36.67;;;;;;;2.73;100.00;98659.56;15052061;19;5002049;-82
2024/02/28 03:02:12;;;;;;;123.38;37.50;;;;;;;2.72;100.00;98672.94;15313207;19;20478;-82
2024/02/28 03:07:38;;;;;;;118.43;37.75;;;;;;;2.75;100.00;98668.28;15311777;19;20094;-84
2024/02/28 03:13:06;;;;;;;131.38;38.65;;;;;;;2.78;100.00;98670.72;15309702;19;20014;-83
2024/02/28 03:18:31;;;;;;;113.18;37.88;;;;;;;2.83;100.00;98688.19;15309393;19;20779;-84
2024/02/28 03:23:55;;;;;;;112.55;37.17;;;;;;;2.88;100.00;98686.06;15314857;19;20018;-83
2024/02/28 03:29:23;;;;;;;159.27;37.70;;;;;;;2.92;100.00;98699.06;15304070;19;20101;-83
2024/02/28 03:34:48;;;;;;;238.27;38.40;;;;;;;2.93;100.00;98708.75;15306050;19;20043;-83
2024/02/28 03:40:14;;;;;;;202.35;37.65;;;;;;;2.90;100.00;98726.72;15299208;19;20035;-83
2024/02/28 03:45:48;;;;;;;159.98;38.22;;;;;;;2.88;100.00;98739.31;15297666;19;20037;-83
2024/02/28 03:51:14;;;;;;;203.15;39.72;;;;;;;2.89;100.00;98731.19;15302914;19;20014;-85
2024/02/28 03:56:38;;;;;;;213.55;39.40;;;;;;;2.89;100.00;98741.84;15300920;19;20011;-82
2024/02/28 04:02:06;;;;;;;218.98;37.80;;;;;;;2.90;100.00;98748.88;15298658;19;20021;-81
2024/02/28 04:07:30;;;;;;;209.32;38.78;;;;;;;2.93;100.00;98759.31;15293692;19;20014;-82
2024/02/28 04:12:55;;;;;;;276.25;40.40;;;;;;;2.95;100.00;98759.19;15292956;19;20018;-85
2024/02/28 04:18:22;;;;;;;295.52;41.72;;;;;;;2.86;100.00;98766.00;15288802;19;20027;-81
2024/02/28 04:23:47;;;;;;;320.52;43.22;;;;;;;2.78;100.00;98777.16;15294466;19;20369;-83
2024/02/28 04:29:13;;;;;;;336.67;45.63;;;;;;;2.74;100.00;98786.31;15288801;19;20081;-83
2024/02/28 04:34:41;;;;;;;244.18;43.90;;;;;;;2.71;100.00;98781.19;15295407;19;20093;-83
2024/02/28 04:40:06;;;;;;;200.63;45.90;;;;;;;2.71;100.00;98788.31;15292884;19;20017;-82
2024/02/28 04:45:38;;;;;;;215.18;43.78;;;;;;;2.70;100.00;98789.28;15291473;19;20086;-83
2024/02/28 04:51:06;;;;;;;178.75;40.53;;;;;;;2.69;100.00;98785.75;15292063;19;20018;-83
2024/02/28 04:56:30;;;;;;;271.70;43.85;;;;;;;2.69;100.00;98788.41;15292012;19;20029;-83
2024/02/28 05:01:55;;;;;;;219.18;40.85;;;;;;;2.70;100.00;98803.44;15290995;19;20022;-83
2024/02/28 05:07:23;;;;;;;198.95;41.80;;;;;;;2.65;100.00;98788.72;15295013;19;20375;-83
2024/02/28 05:12:48;;;;;;;212.43;42.53;;;;;;;2.63;100.00;98794.16;15292240;19;20002;-82
2024/02/28 05:18:13;;;;;;;202.43;43.63;;;;;;;2.66;100.00;98809.91;15294901;19;20010;-82
2024/02/28 05:23:41;;;;;;;158.05;40.38;;;;;;;2.67;100.00;98816.94;15301891;19;20078;-83
2024/02/28 05:29:05;;;;;;;134.18;38.38;;;;;;;2.65;100.00;98823.31;15289493;19;20018;-83
2024/02/28 05:34:31;;;;;;;122.25;36.65;;;;;;;2.64;100.00;98835.78;15297114;19;20011;-82
2024/02/28 05:39:58;;;;;;;121.68;37.53;;;;;;;2.66;100.00;98836.50;15308409;19;20038;-83
2024/02/28 05:45:29;;;;;;;97.03;34.75;;;;;;;2.68;100.00;98839.91;15308267;19;20018;-84
2024/02/28 05:50:55;;;;;;;97.65;34.10;;;;;;;2.73;100.00;98852.91;15312959;19;20014;-83
2024/02/28 05:56:23;;;;;;;97.63;34.03;;;;;;;2.77;100.00;98855.28;15318680;19;20086;-82
2024/02/28 06:48:08;;;;;;;64.70;28.58;;;;;;;2.95;100.00;98905.59;15298241;19;20007;-83
2024/02/28 06:53:33;;;;;;;36.13;20.13;;;;;;;2.96;100.00;98909.97;15307037;19;20359;-84
2024/02/28 06:58:57;;;;;;;17.98;12.38;;;;;;;2.97;100.00;98916.13;15300760;19;20031;-82
2024/02/28 07:04:25;;;;;;;18.92;12.48;;;;;;;2.99;100.00;98922.22;15302875;19;20010;-81
2024/02/28 07:09:49;;;;;;;21.02;14.02;;;;;;;3.04;100.00;98920.94;15296618;19;20014;-81
2024/02/28 07:15:19;;;;;;;24.45;15.00;;;;;;;3.15;100.00;98924.69;15303066;19;20082;-82
2024/02/28 07:20:39;;;;;;;28.33;16.00;;;;;;;3.24;100.00;98922.28;15300861;19;20003;-81
2024/02/28 07:26:04;;;;;;;25.38;15.50;;;;;;;3.38;100.00;98917.84;15297467;19;20027;-84
2024/02/28 07:31:40;;;;;;;19.92;12.93;;;;;;;3.46;100.00;98917.34;15302479;19;20090;-83
2024/02/28 07:37:09;;;;;;;22.00;14.10;;;;;;;3.47;100.00;98917.22;15039130;19;5002160;-82
2024/02/28 07:42:34;;;;;;;12.25;9.23;;;;;;;3.53;100.00;98910.63;15308896;19;20014;-82
2024/02/28 07:48:05;;;;;;;15.25;11.38;;;;;;;3.57;100.00;98900.59;15297170;19;20015;-83
2024/02/28 07:53:26;;;;;;;12.60;9.50;;;;;;;3.58;100.00;98911.19;15298224;19;20025;-82
2024/02/28 07:58:51;;;;;;;12.80;9.63;;;;;;;3.58;100.00;98911.19;15302162;19;20022;-84
2024/02/28 08:04:25;;;;;;;12.10;9.10;;;;;;;3.53;100.00;98889.31;15303008;19;20018;-83
2024/02/28 08:09:53;;;;;;;13.38;9.50;;;;;;;3.54;100.00;98883.88;15297657;19;20006;-82
2024/02/28 08:15:19;;;;;;;14.45;9.82;;;;;;;3.68;100.00;98884.75;15306644;19;20038;-83
2024/02/28 08:20:49;;;;;;;13.55;9.57;;;;;;;3.78;100.00;98872.47;15294403;19;20829;-82
2024/02/28 08:26:10;;;;;;;13.43;9.25;;;;;;;3.89;100.00;98869.06;15295047;19;20042;-81
2024/02/28 08:31:35;;;;;;;12.88;8.85;;;;;;;3.98;100.00;98868.41;15299767;19;20014;-82
2024/02/28 08:37:00;;;;;;;13.05;10.18;;;;;;;4.03;100.00;98865.44;15294047;19;20407;-83
2024/02/28 08:42:28;;;;;;;12.95;9.50;;;;;;;4.04;100.00;98872.47;15293031;19;20466;-82
2024/02/28 08:48:01;;;;;;;13.20;10.00;;;;;;;4.11;100.00;98872.88;15294703;19;20015;-81
2024/02/28 08:53:26;;;;;;;14.98;9.85;;;;;;;4.16;100.00;98870.75;15297010;19;20422;-84
2024/02/28 08:58:53;;;;;;;10.98;7.97;;;;;;;4.25;100.00;98875.44;15289589;19;20408;-81
2024/02/28 09:04:18;;;;;;;11.27;8.52;;;;;;;4.30;100.00;98862.59;15292348;19;20085;-82
2024/02/28 09:09:43;;;;;;;10.65;7.63;;;;;;;4.30;100.00;98878.59;15286508;19;20058;-83
2024/02/28 09:15:13;;;;;;;10.07;7.57;;;;;;;4.26;100.00;98874.47;15289653;19;20014;-82
2024/02/28 09:20:37;;;;;;;9.55;7.40;;;;;;;4.25;100.00;98861.22;15299910;19;20015;-82
2024/02/28 09:26:06;;;;;;;10.38;7.63;;;;;;;4.31;100.00;98868.78;15306090;19;20017;-83
2024/02/28 09:31:33;;;;;;;9.68;7.88;;;;;;;4.47;100.00;98868.53;15305569;19;20085;-82
2024/02/28 09:36:58;;;;;;;9.60;8.00;;;;;;;4.63;100.00;98852.25;15301800;19;20024;-84
2024/02/28 09:42:23;;;;;;;9.63;7.28;;;;;;;4.69;100.00;98869.63;15312959;19;20015;-85
2024/02/28 09:47:57;;;;;;;10.25;8.13;;;;;;;4.75;100.00;98867.38;15293771;19;20085;-83
2024/02/28 09:53:22;;;;;;;9.70;7.70;;;;;;;4.86;100.00;98865.72;15294801;19;20015;-83
2024/02/28 09:58:49;;;;;;;9.43;8.15;;;;;;;4.93;100.00;98867.81;15292031;19;20098;-84
2024/02/28 10:04:17;;;;;;;10.02;8.05;;;;;;;5.01;100.00;98877.06;15289304;19;20019;-82
2024/02/28 10:09:41;;;;;;;10.02;7.97;;;;;;;4.95;100.00;98867.69;15290431;19;20022;-83
2024/02/28 10:15:09;;;;;;;9.50;8.18;;;;;;;4.96;100.00;98877.41;15290392;19;20007;-83
2024/02/28 10:20:39;;;;;;;8.65;7.75;;;;;;;4.97;100.00;98881.78;15296583;19;20527;-83
2024/02/28 10:26:05;;;;;;;8.25;7.40;;;;;;;5.05;100.00;98889.22;15299832;19;20023;-83
2024/02/28 10:31:31;;;;;;;8.38;7.50;;;;;;;5.11;100.00;98880.78;15306797;19;20022;-82
2024/02/28 10:37:00;;;;;;;8.02;7.22;;;;;;;5.20;100.00;98893.44;15303184;19;20014;-83
2024/02/28 10:42:26;;;;;;;8.75;7.80;;;;;;;5.28;100.00;98894.66;15314790;19;20643;-84
2024/02/28 10:47:53;;;;;;;8.18;7.28;;;;;;;5.37;100.00;98891.28;15306132;19;20010;-83
2024/02/28 10:53:23;;;;;;;7.20;6.50;;;;;;;5.42;100.00;98883.78;15304558;19;20455;-83
2024/02/28 10:58:54;;;;;;;8.30;6.50;;;;;;;5.49;100.00;98882.34;15301183;19;20019;-84
2024/02/28 11:04:20;;;;;;;7.10;6.40;;;;;;;5.54;100.00;98901.56;15305453;19;20039;-83
2024/02/28 11:09:50;;;;;;;7.20;6.22;;;;;;;5.58;100.00;98891.47;15304548;19;20011;-83
2024/02/28 11:15:25;;;;;;;8.68;6.93;;;;;;;5.64;100.00;98884.81;15307307;19;20025;-82
2024/02/28 11:20:50;;;;;;;7.60;6.60;;;;;;;5.77;100.00;98874.88;15314588;19;20027;-82
2024/02/28 11:26:21;;;;;;;7.25;5.93;;;;;;;5.86;100.00;98873.31;15309268;19;20111;-84
2024/02/28 11:31:50;;;;;;;6.35;5.63;;;;;;;5.90;100.00;98873.91;15327260;19;20031;-80
2024/02/28 11:37:09;;;;;;;7.63;6.13;;;;;;;5.97;100.00;98880.47;15367682;19;20032;-83
2024/02/28 11:42:40;;;;;;;6.65;5.43;;;;;;;6.07;100.00;98877.97;15368951;19;20014;-87
2024/02/28 11:48:16;;;;;;;6.07;5.47;;;;;;;6.11;100.00;98872.25;15369683;19;20026;-83
2024/02/28 11:53:45;;;;;;;5.30;4.80;;;;;;;6.19;100.00;98873.44;15360881;19;20033;-82
2024/02/28 15:34:32;;;;;;;3.15;2.95;;;;;;;12.59;100.00;98768.41;15297455;19;19994;-85
2024/02/28 15:39:57;;;;;;;3.22;2.92;;;;;;;12.70;100.00;98769.97;15298372;19;20078;-88
2024/02/28 15:45:25;;;;;;;3.92;3.53;;;;;;;12.77;100.00;98777.25;15300174;19;20012;-84
2024/02/28 15:50:52;;;;;;;3.60;3.30;;;;;;;12.42;100.00;98775.66;15297386;19;20014;-83
2024/02/28 15:56:17;;;;;;;4.65;3.92;;;;;;;12.10;100.00;98769.13;15296698;19;20014;-85
2024/02/28 16:01:42;;;;;;;4.93;4.10;;;;;;;11.46;100.00;98766.75;15294509;19;20018;-84
2024/02/28 16:07:10;;;;;;;5.13;4.30;;;;;;;10.59;100.00;98770.06;15299940;19;20027;-82
2024/02/28 16:12:36;;;;;;;5.90;4.20;;;;;;;10.12;100.00;98769.19;15302736;19;20014;-84
2024/02/28 16:18:00;;;;;;;5.55;4.18;;;;;;;9.66;100.00;98771.78;15302198;19;20098;-82
2024/02/28 16:23:27;;;;;;;6.55;4.40;;;;;;;9.25;100.00;98772.03;15295340;19;20014;-84
2024/02/28 16:28:52;;;;;;;5.07;4.40;;;;;;;8.73;100.00;98782.25;15293465;19;20024;-82
2024/02/28 16:34:16;;;;;;;4.03;3.72;;;;;;;8.28;100.00;98792.47;15292151;19;20019;-81
2024/02/28 16:39:44;;;;;;;4.72;4.20;;;;;;;7.99;100.00;98793.22;15293163;19;20078;-82
2024/02/28 16:45:10;;;;;;;4.88;4.03;;;;;;;7.75;100.00;98792.69;15304900;19;20026;-83
2024/02/28 16:50:35;;;;;;;4.82;4.32;;;;;;;7.52;100.00;98795.56;15305546;19;20081;-84
2024/02/28 16:56:02;;;;;;;5.97;5.28;;;;;;;7.30;100.00;98805.44;15305713;19;20038;-83
2024/02/28 17:01:27;;;;;;;4.68;4.25;;;;;;;7.13;100.00;98806.00;15302951;19;20090;-82
2024/02/28 17:06:52;;;;;;;5.70;4.43;;;;;;;6.93;100.00;98811.22;15305262;19;20014;-83
2024/02/28 17:12:20;;;;;;;4.50;4.10;;;;;;;6.76;100.00;98818.81;15302270;19;20015;-82
2024/02/28 17:17:44;;;;;;;4.75;4.25;;;;;;;6.62;100.00;98821.81;15290329;19;20010;-82
2024/02/28 17:23:09;;;;;;;5.40;4.90;;;;;;;6.46;100.00;98820.38;15295166;19;20057;-82
2024/02/28 17:28:37;;;;;;;5.78;5.18;;;;;;;6.25;100.00;98816.78;15293723;19;20021;-84
2024/02/28 17:34:02;;;;;;;6.07;5.47;;;;;;;5.94;100.00;98816.53;15303263;19;20035;-81
2024/02/28 17:39:38;;;;;;;8.27;5.82;;;;;;;5.78;100.00;98823.09;15304299;19;20021;-81
2024/02/28 17:45:13;;;;;;;8.48;6.43;;;;;;;5.64;100.00;98832.22;15309527;19;20022;-84
2024/02/28 17:50:38;;;;;;;6.60;5.82;;;;;;;5.45;100.00;98832.78;15305006;19;20809;-85
2024/02/28 17:56:05;;;;;;;6.70;5.97;;;;;;;5.23;100.00;98829.06;15313672;19;20013;-83
2024/02/28 18:07:27;;;;;;;6.53;5.75;;;;;;;4.85;100.00;98835.50;15295733;19;20019;-81
2024/02/28 18:12:51;;;;;;;7.10;5.90;;;;;;;4.84;100.00;98840.94;15286566;19;20036;-81
2024/02/28 18:18:16;;;;;;;8.88;6.15;;;;;;;4.67;100.00;98842.19;15301715;19;20018;-82
2024/02/28 18:23:43;;;;;;;7.40;6.40;;;;;;;4.48;100.00;98849.72;15314842;19;20116;-83
2024/02/28 18:29:15;;;;;;;6.95;6.25;;;;;;;4.29;100.00;98854.72;15298172;19;20017;-83
2024/02/28 18:34:39;;;;;;;7.30;6.53;;;;;;;4.21;100.00;98855.25;15310213;19;20405;-81
2024/02/28 18:40:12;;;;;;;7.68;6.55;;;;;;;4.23;100.00;98856.00;15304705;19;20058;-82
2024/02/28 18:45:37;;;;;;;7.40;6.68;;;;;;;4.10;100.00;98857.84;15300182;19;20396;-83
2024/02/28 18:51:02;;;;;;;8.52;6.97;;;;;;;4.00;100.00;98858.50;15307451;19;20021;-82
2024/02/28 18:56:31;;;;;;;8.20;7.28;;;;;;;3.88;100.00;98850.53;15303639;19;20038;-83
2024/02/28 19:01:55;;;;;;;7.85;7.10;;;;;;;3.70;100.00;98849.03;15302047;19;20010;-81
2024/02/28 19:07:21;;;;;;;7.93;7.13;;;;;;;3.58;100.00;98855.22;15301198;19;20006;-81
2024/02/28 19:12:48;;;;;;;7.60;6.80;;;;;;;3.58;100.00;98854.38;15303524;19;20023;-82
2024/02/28 19:18:12;;;;;;;7.47;6.63;;;;;;;3.51;100.00;98849.47;15303936;19;20021;-81
2024/02/28 19:23:37;;;;;;;7.18;6.47;;;;;;;3.52;100.00;98844.97;15305741;19;20017;-82
2024/02/28 19:29:06;;;;;;;9.60;6.95;;;;;;;3.43;100.00;98842.97;15309558;19;20070;-80
2024/02/28 19:34:31;;;;;;;7.70;6.90;;;;;;;3.39;100.00;98840.50;15314197;19;20015;-82
2024/02/28 19:40:07;;;;;;;7.82;6.95;;;;;;;3.45;100.00;98833.06;15323433;19;20007;-81
2024/02/28 19:45:34;;;;;;;7.93;6.40;;;;;;;3.48;100.00;98839.03;15325468;19;20011;-82
2024/02/28 19:50:59;;;;;;;7.47;6.43;;;;;;;3.46;100.00;98840.94;15301393;19;20018;-82
2024/02/28 19:56:25;;;;;;;8.57;7.55;;;;;;;3.45;100.00;98843.72;15290606;19;20077;-82
2024/02/28 20:01:54;;;;;;;8.70;7.80;;;;;;;3.40;100.00;98833.38;15292643;19;20035;-82
2024/02/28 20:07:19;;;;;;;8.48;7.57;;;;;;;3.33;100.00;98837.41;15294436;19;20086;-84
2024/02/28 20:12:44;;;;;;;8.82;7.93;;;;;;;3.22;100.00;98828.34;15297234;19;20011;-82
2024/02/28 20:18:13;;;;;;;9.23;8.13;;;;;;;3.14;100.00;98837.81;15293974;19;20354;-82
2024/02/28 20:23:38;;;;;;;8.10;7.30;;;;;;;3.11;100.00;98843.34;15290341;19;20018;-83
2024/02/28 20:29:03;;;;;;;7.82;7.03;;;;;;;3.11;100.00;98825.56;15295181;19;20082;-83
2024/02/28 20:34:30;;;;;;;7.93;7.13;;;;;;;3.15;100.00;98829.72;15315566;19;20320;-82
2024/02/28 20:40:03;;;;;;;10.18;8.38;;;;;;;3.14;100.00;98835.13;15294925;19;20022;-81
2024/02/28 20:45:28;;;;;;;9.13;7.90;;;;;;;3.03;100.00;98830.56;15302268;19;20504;-80
2024/02/28 20:50:59;;;;;;;10.38;8.45;;;;;;;2.98;100.00;98830.88;15290026;19;20429;-81
2024/02/28 20:56:27;;;;;;;9.27;8.15;;;;;;;2.93;100.00;98828.53;15303553;19;20033;-81
2024/02/28 21:01:53;;;;;;;10.48;7.63;;;;;;;2.95;100.00;98828.41;15298569;19;20018;-81
2024/02/28 21:07:20;;;;;;;10.68;8.05;;;;;;;2.92;100.00;98825.94;15306480;19;20090;-83
2024/02/28 21:13:02;;;;;;;10.40;8.85;;;;;;;2.86;100.00;98815.72;15297201;19;20090;-83
2024/02/28 21:18:27;;;;;;;9.48;8.07;;;;;;;2.72;100.00;98812.16;15297735;19;20007;-81
2024/02/28 21:23:55;;;;;;;10.43;8.55;;;;;;;2.63;100.00;98820.75;15300232;19;20010;-81
2024/02/28 21:29:20;;;;;;;12.23;8.50;;;;;;;2.55;100.00;98802.63;14942720;19;5001354;-82
2024/02/28 21:34:44;;;;;;;8.82;7.93;;;;;;;2.55;100.00;98796.44;15301006;19;20007;-82
2024/02/28 21:40:12;;;;;;;9.98;8.05;;;;;;;2.61;100.00;98804.88;15294906;19;20013;-83
2024/02/28 21:45:37;;;;;;;10.13;8.75;;;;;;;2.66;100.00;98799.25;15298155;19;20495;-82
2024/02/28 21:51:02;;;;;;;9.45;8.35;;;;;;;2.69;100.00;98809.69;15294168;19;20011;-82
2024/02/28 21:56:30;;;;;;;9.77;8.23;;;;;;;2.77;100.00;98807.38;15300388;19;20023;-81
2024/02/28 22:01:55;;;;;;;9.43;7.95;;;;;;;2.80;100.00;98805.47;15299096;19;20025;-82
2024/02/28 22:07:19;;;;;;;10.82;8.20;;;;;;;2.71;100.00;98807.78;15296209;19;20053;-83
2024/02/28 22:12:46;;;;;;;10.25;8.43;;;;;;;2.66;100.00;98798.41;15303757;19;20027;-82
2024/02/28 22:18:12;;;;;;;9.85;8.40;;;;;;;2.61;100.00;98793.41;15297402;19;20475;-81
2024/02/28 22:23:45;;;;;;;9.50;7.70;;;;;;;2.55;100.00;98786.69;15300006;19;20025;-82
2024/02/28 22:29:12;;;;;;;9.50;8.23;;;;;;;2.54;100.00;98794.75;15307212;19;20042;-82
2024/02/28 22:34:37;;;;;;;11.07;8.07;;;;;;;2.49;100.00;98797.72;15305659;19;20017;-82
2024/02/28 22:40:09;;;;;;;9.43;7.60;;;;;;;2.39;100.00;98781.53;15301621;19;20021;-82
2024/02/28 22:45:39;;;;;;;9.23;7.88;;;;;;;2.25;100.00;98784.22;15307901;19;20023;-82
2024/02/28 22:51:04;;;;;;;9.20;8.20;;;;;;;2.15;100.00;98776.84;15303135;19;20018;-82
2024/02/28 22:56:29;;;;;;;10.23;8.02;;;;;;;2.15;100.00;98783.97;15304168;19;20038;-83
2024/02/28 23:01:57;;;;;;;9.65;7.95;;;;;;;2.15;100.00;98775.97;15304927;19;20018;-81
2024/02/28 23:07:22;;;;;;;9.73;7.55;;;;;;;2.17;100.00;98778.56;15306581;19;20022;-82
2024/02/28 23:12:47;;;;;;;9.35;8.00;;;;;;;2.07;100.00;98784.44;15318976;19;20372;-80
2024/02/28 23:18:15;;;;;;;11.88;7.75;;;;;;;2.04;100.00;98774.03;15312577;19;20027;-80
2024/02/28 23:23:39;;;;;;;9.68;7.75;;;;;;;2.07;100.00;98776.47;15310463;19;20015;-81
2024/02/28 23:29:04;;;;;;;9.93;7.18;;;;;;;2.02;100.00;98767.09;15308921;19;20098;-81
2024/02/28 23:34:31;;;;;;;8.60;7.22;;;;;;;1.96;100.00;98757.72;15317331;19;20018;-81
2024/02/28 23:40:02;;;;;;;8.15;6.93;;;;;;;1.90;100.00;98756.28;15311197;19;20006;-80
2024/02/28 23:45:33;;;;;;;9.35;7.75;;;;;;;1.83;100.00;98761.16;15312312;19;20082;-82
2024/02/28 23:51:00;;;;;;;8.23;7.03;;;;;;;1.81;100.00;98767.50;15308274;19;20014;-81
2024/02/28 23:56:25;;;;;;;8.65;7.30;;;;;;;1.80;100.00;98758.72;15314023;19;20022;-82
